San Francisco, California
Traffic Map
Current Weather Conditions
San Francisco, California
Broken Clouds
Broken Clouds
24°
Feels Like: 24°
Wind Chill: 24° Ceiling: 5000
Heat Index: 24° Visibility: 10mi
Dew Point: 14° Wind: 8mph
Humidity: 55% Direction: 340° (NNW)
Pressure: 30.08in Gusts: 0mph
Raw Report DataKSFO 221856Z 34007KT 10SM FEW031 BKN050 24/14 A3008 RMK AO2 SLP185 T02390144 $
Traffic Incident Summary
Active as of:
Severity:
Category:
InformationThere was an issue retrieving the traffic information for this location. Please try a different location or try again shortly.
Advertisements
Track Severe Weather on mobile